sensor_id;sensor_type;location;lat;lon;timestamp;P1;durP1;ratioP1;P2;durP2;ratioP2
60847;SDS011;46681;47.696;9.140;2023-03-01T00:00:17;10.83;;;9.77;;
60847;SDS011;46681;47.696;9.140;2023-03-01T00:02:51;11.30;;;10.30;;
60847;SDS011;46681;47.696;9.140;2023-03-01T00:05:16;10.90;;;9.63;;
60847;SDS011;46681;47.696;9.140;2023-03-01T00:07:42;10.90;;;9.90;;
60847;SDS011;46681;47.696;9.140;2023-03-01T00:10:08;11.30;;;10.23;;
60847;SDS011;46681;47.696;9.140;2023-03-01T00:12:34;11.10;;;10.00;;
60847;SDS011;46681;47.696;9.140;2023-03-01T00:15:00;11.30;;;10.20;;
60847;SDS011;46681;47.696;9.140;2023-03-01T00:17:28;11.17;;;10.10;;
60847;SDS011;46681;47.696;9.140;2023-03-01T00:19:54;10.67;;;9.67;;
60847;SDS011;46681;47.696;9.140;2023-03-01T00:22:21;11.63;;;10.53;;
60847;SDS011;46681;47.696;9.140;2023-03-01T00:24:51;11.67;;;10.57;;
60847;SDS011;46681;47.696;9.140;2023-03-01T00:27:21;11.60;;;10.40;;
60847;SDS011;46681;47.696;9.140;2023-03-01T00:29:47;11.57;;;10.27;;
60847;SDS011;46681;47.696;9.140;2023-03-01T00:32:13;11.17;;;10.07;;
60847;SDS011;46681;47.696;9.140;2023-03-01T00:34:38;10.13;;;9.20;;
60847;SDS011;46681;47.696;9.140;2023-03-01T00:37:07;11.33;;;10.03;;
60847;SDS011;46681;47.696;9.140;2023-03-01T00:39:34;10.93;;;10.03;;
60847;SDS011;46681;47.696;9.140;2023-03-01T00:42:05;11.37;;;10.23;;
60847;SDS011;46681;47.696;9.140;2023-03-01T00:44:32;11.27;;;10.17;;
60847;SDS011;46681;47.696;9.140;2023-03-01T00:46:58;11.57;;;10.47;;
60847;SDS011;46681;47.696;9.140;2023-03-01T00:49:23;11.43;;;10.33;;
60847;SDS011;46681;47.696;9.140;2023-03-01T00:51:49;11.73;;;10.50;;
60847;SDS011;46681;47.696;9.140;2023-03-01T00:54:16;10.90;;;9.70;;
60847;SDS011;46681;47.696;9.140;2023-03-01T00:56:41;14.57;;;11.77;;
60847;SDS011;46681;47.696;9.140;2023-03-01T00:59:07;11.47;;;10.37;;
60847;SDS011;46681;47.696;9.140;2023-03-01T01:01:38;12.93;;;11.60;;
60847;SDS011;46681;47.696;9.140;2023-03-01T01:04:08;11.73;;;10.53;;
60847;SDS011;46681;47.696;9.140;2023-03-01T01:06:45;11.70;;;10.60;;
60847;SDS011;46681;47.696;9.140;2023-03-01T01:09:13;11.60;;;10.47;;
60847;SDS011;46681;47.696;9.140;2023-03-01T01:11:42;12.57;;;11.23;;
60847;SDS011;46681;47.696;9.140;2023-03-01T01:14:16;12.80;;;11.43;;
60847;SDS011;46681;47.696;9.140;2023-03-01T01:16:44;12.67;;;11.37;;
60847;SDS011;46681;47.696;9.140;2023-03-01T01:19:17;12.53;;;11.33;;
60847;SDS011;46681;47.696;9.140;2023-03-01T01:21:43;12.00;;;10.80;;
60847;SDS011;46681;47.696;9.140;2023-03-01T01:24:09;12.90;;;11.60;;
60847;SDS011;46681;47.696;9.140;2023-03-01T01:26:42;12.00;;;10.80;;
60847;SDS011;46681;47.696;9.140;2023-03-01T01:29:09;12.77;;;11.57;;
60847;SDS011;46681;47.696;9.140;2023-03-01T01:31:43;12.13;;;10.83;;
60847;SDS011;46681;47.696;9.140;2023-03-01T01:34:12;12.37;;;11.07;;
60847;SDS011;46681;47.696;9.140;2023-03-01T01:36:43;12.37;;;11.10;;
60847;SDS011;46681;47.696;9.140;2023-03-01T01:39:15;12.73;;;11.00;;
60847;SDS011;46681;47.696;9.140;2023-03-01T01:41:41;11.87;;;10.63;;
60847;SDS011;46681;47.696;9.140;2023-03-01T01:44:26;13.33;;;11.97;;
60847;SDS011;46681;47.696;9.140;2023-03-01T01:54:56;12.90;;;11.57;;
60847;SDS011;46681;47.696;9.140;2023-03-01T01:57:30;13.30;;;11.97;;
60847;SDS011;46681;47.696;9.140;2023-03-01T02:00:05;13.70;;;12.23;;
60847;SDS011;46681;47.696;9.140;2023-03-01T02:02:35;12.60;;;11.30;;
60847;SDS011;46681;47.696;9.140;2023-03-01T02:05:06;13.17;;;11.87;;
60847;SDS011;46681;47.696;9.140;2023-03-01T02:07:41;13.73;;;11.83;;
60847;SDS011;46681;47.696;9.140;2023-03-01T02:10:09;13.00;;;11.20;;
60847;SDS011;46681;47.696;9.140;2023-03-01T02:12:54;12.03;;;10.80;;
60847;SDS011;46681;47.696;9.140;2023-03-01T02:15:20;12.87;;;11.53;;
60847;SDS011;46681;47.696;9.140;2023-03-01T02:17:48;13.17;;;11.97;;
60847;SDS011;46681;47.696;9.140;2023-03-01T02:23:13;11.87;;;10.67;;
60847;SDS011;46681;47.696;9.140;2023-03-01T02:28:35;13.23;;;11.83;;
60847;SDS011;46681;47.696;9.140;2023-03-01T02:31:05;13.50;;;12.10;;
60847;SDS011;46681;47.696;9.140;2023-03-01T02:33:39;13.73;;;11.97;;
60847;SDS011;46681;47.696;9.140;2023-03-01T02:36:07;12.90;;;11.60;;
60847;SDS011;46681;47.696;9.140;2023-03-01T02:38:35;13.93;;;12.43;;
60847;SDS011;46681;47.696;9.140;2023-03-01T02:41:01;13.10;;;11.73;;
60847;SDS011;46681;47.696;9.140;2023-03-01T02:43:32;13.63;;;12.23;;
60847;SDS011;46681;47.696;9.140;2023-03-01T02:46:08;13.90;;;12.50;;
60847;SDS011;46681;47.696;9.140;2023-03-01T02:56:48;13.90;;;12.40;;
60847;SDS011;46681;47.696;9.140;2023-03-01T02:59:24;14.27;;;12.87;;
60847;SDS011;46681;47.696;9.140;2023-03-01T03:01:54;14.23;;;12.83;;
60847;SDS011;46681;47.696;9.140;2023-03-01T03:04:20;13.20;;;11.90;;
60847;SDS011;46681;47.696;9.140;2023-03-01T03:06:46;13.33;;;12.03;;
60847;SDS011;46681;47.696;9.140;2023-03-01T03:09:15;13.50;;;12.10;;
60847;SDS011;46681;47.696;9.140;2023-03-01T03:11:42;13.63;;;12.07;;
60847;SDS011;46681;47.696;9.140;2023-03-01T03:14:13;13.20;;;11.80;;
60847;SDS011;46681;47.696;9.140;2023-03-01T03:16:46;14.53;;;13.03;;
60847;SDS011;46681;47.696;9.140;2023-03-01T03:19:15;14.43;;;12.43;;
60847;SDS011;46681;47.696;9.140;2023-03-01T03:21:42;14.27;;;12.93;;
60847;SDS011;46681;47.696;9.140;2023-03-01T03:24:18;13.43;;;12.03;;
60847;SDS011;46681;47.696;9.140;2023-03-01T03:26:43;12.53;;;11.30;;
60847;SDS011;46681;47.696;9.140;2023-03-01T03:29:10;13.57;;;12.17;;
60847;SDS011;46681;47.696;9.140;2023-03-01T03:31:35;12.80;;;11.60;;
60847;SDS011;46681;47.696;9.140;2023-03-01T03:34:01;12.87;;;11.17;;
60847;SDS011;46681;47.696;9.140;2023-03-01T03:36:28;13.43;;;12.03;;
60847;SDS011;46681;47.696;9.140;2023-03-01T03:38:56;13.63;;;11.57;;
60847;SDS011;46681;47.696;9.140;2023-03-01T03:41:24;14.80;;;11.87;;
60847;SDS011;46681;47.696;9.140;2023-03-01T03:43:52;13.60;;;12.17;;
60847;SDS011;46681;47.696;9.140;2023-03-01T03:46:18;13.60;;;12.17;;
60847;SDS011;46681;47.696;9.140;2023-03-01T03:48:46;13.23;;;11.87;;
60847;SDS011;46681;47.696;9.140;2023-03-01T03:51:17;13.53;;;12.23;;
60847;SDS011;46681;47.696;9.140;2023-03-01T03:53:44;13.67;;;12.27;;
60847;SDS011;46681;47.696;9.140;2023-03-01T03:56:10;14.13;;;12.67;;
60847;SDS011;46681;47.696;9.140;2023-03-01T03:58:37;13.73;;;11.90;;
60847;SDS011;46681;47.696;9.140;2023-03-01T04:01:04;13.83;;;12.40;;
60847;SDS011;46681;47.696;9.140;2023-03-01T04:03:33;12.20;;;10.93;;
60847;SDS011;46681;47.696;9.140;2023-03-01T04:06:00;13.77;;;12.23;;
60847;SDS011;46681;47.696;9.140;2023-03-01T04:08:27;12.93;;;11.57;;
60847;SDS011;46681;47.696;9.140;2023-03-01T04:10:57;13.80;;;12.27;;
60847;SDS011;46681;47.696;9.140;2023-03-01T04:13:27;14.80;;;12.30;;
60847;SDS011;46681;47.696;9.140;2023-03-01T04:15:54;14.77;;;13.23;;
60847;SDS011;46681;47.696;9.140;2023-03-01T04:18:20;13.37;;;12.03;;
60847;SDS011;46681;47.696;9.140;2023-03-01T04:20:49;13.90;;;12.47;;
60847;SDS011;46681;47.696;9.140;2023-03-01T04:23:16;16.33;;;11.87;;
60847;SDS011;46681;47.696;9.140;2023-03-01T04:25:50;12.63;;;10.63;;
60847;SDS011;46681;47.696;9.140;2023-03-01T04:28:30;12.53;;;11.23;;
60847;SDS011;46681;47.696;9.140;2023-03-01T04:31:05;12.17;;;10.90;;
60847;SDS011;46681;47.696;9.140;2023-03-01T04:33:32;12.87;;;11.57;;
60847;SDS011;46681;47.696;9.140;2023-03-01T04:36:01;13.10;;;11.70;;
60847;SDS011;46681;47.696;9.140;2023-03-01T04:38:38;13.27;;;11.47;;
60847;SDS011;46681;47.696;9.140;2023-03-01T04:41:08;13.17;;;11.70;;
60847;SDS011;46681;47.696;9.140;2023-03-01T04:43:39;12.83;;;11.53;;
60847;SDS011;46681;47.696;9.140;2023-03-01T04:46:14;13.53;;;11.43;;
60847;SDS011;46681;47.696;9.140;2023-03-01T04:48:45;13.33;;;11.93;;
60847;SDS011;46681;47.696;9.140;2023-03-01T04:51:12;13.70;;;11.90;;
60847;SDS011;46681;47.696;9.140;2023-03-01T04:53:40;12.30;;;11.10;;
60847;SDS011;46681;47.696;9.140;2023-03-01T04:56:13;13.93;;;12.50;;
60847;SDS011;46681;47.696;9.140;2023-03-01T04:58:39;13.20;;;11.77;;
60847;SDS011;46681;47.696;9.140;2023-03-01T05:01:09;13.43;;;12.03;;
60847;SDS011;46681;47.696;9.140;2023-03-01T05:03:44;13.40;;;11.63;;
60847;SDS011;46681;47.696;9.140;2023-03-01T05:06:19;12.63;;;11.33;;
60847;SDS011;46681;47.696;9.140;2023-03-01T05:08:45;12.57;;;11.37;;
60847;SDS011;46681;47.696;9.140;2023-03-01T05:11:11;13.50;;;12.07;;
60847;SDS011;46681;47.696;9.140;2023-03-01T05:13:39;13.13;;;11.63;;
60847;SDS011;46681;47.696;9.140;2023-03-01T05:16:08;13.57;;;11.70;;
60847;SDS011;46681;47.696;9.140;2023-03-01T05:18:37;12.53;;;11.27;;
60847;SDS011;46681;47.696;9.140;2023-03-01T05:21:10;13.30;;;11.87;;
60847;SDS011;46681;47.696;9.140;2023-03-01T05:23:39;13.13;;;11.73;;
60847;SDS011;46681;47.696;9.140;2023-03-01T05:26:05;12.77;;;11.40;;
60847;SDS011;46681;47.696;9.140;2023-03-01T05:28:38;12.77;;;11.37;;
60847;SDS011;46681;47.696;9.140;2023-03-01T05:31:04;12.53;;;11.23;;
60847;SDS011;46681;47.696;9.140;2023-03-01T05:33:31;13.50;;;11.50;;
60847;SDS011;46681;47.696;9.140;2023-03-01T05:35:59;11.87;;;10.67;;
60847;SDS011;46681;47.696;9.140;2023-03-01T05:38:29;12.73;;;11.23;;
60847;SDS011;46681;47.696;9.140;2023-03-01T05:40:54;11.53;;;10.43;;
60847;SDS011;46681;47.696;9.140;2023-03-01T05:43:21;13.67;;;11.13;;
60847;SDS011;46681;47.696;9.140;2023-03-01T05:45:48;13.73;;;12.30;;
60847;SDS011;46681;47.696;9.140;2023-03-01T05:48:15;14.50;;;11.57;;
60847;SDS011;46681;47.696;9.140;2023-03-01T05:50:42;13.03;;;11.70;;
60847;SDS011;46681;47.696;9.140;2023-03-01T05:53:14;12.13;;;10.90;;
60847;SDS011;46681;47.696;9.140;2023-03-01T05:55:42;12.93;;;11.30;;
60847;SDS011;46681;47.696;9.140;2023-03-01T05:58:11;12.30;;;11.03;;
60847;SDS011;46681;47.696;9.140;2023-03-01T06:00:42;13.40;;;12.00;;
60847;SDS011;46681;47.696;9.140;2023-03-01T06:03:16;13.60;;;11.47;;
60847;SDS011;46681;47.696;9.140;2023-03-01T06:05:45;13.03;;;11.67;;
60847;SDS011;46681;47.696;9.140;2023-03-01T06:08:15;13.63;;;12.23;;
60847;SDS011;46681;47.696;9.140;2023-03-01T06:10:54;12.67;;;11.43;;
60847;SDS011;46681;47.696;9.140;2023-03-01T06:13:20;13.87;;;12.40;;
60847;SDS011;46681;47.696;9.140;2023-03-01T06:15:48;13.10;;;11.60;;
60847;SDS011;46681;47.696;9.140;2023-03-01T06:18:13;14.20;;;12.33;;
60847;SDS011;46681;47.696;9.140;2023-03-01T06:20:54;13.70;;;12.27;;
60847;SDS011;46681;47.696;9.140;2023-03-01T06:23:21;13.23;;;11.70;;
60847;SDS011;46681;47.696;9.140;2023-03-01T06:25:51;16.10;;;12.47;;
60847;SDS011;46681;47.696;9.140;2023-03-01T06:28:21;13.87;;;12.20;;
60847;SDS011;46681;47.696;9.140;2023-03-01T06:30:51;14.97;;;13.07;;
60847;SDS011;46681;47.696;9.140;2023-03-01T06:33:19;15.03;;;12.97;;
60847;SDS011;46681;47.696;9.140;2023-03-01T06:35:49;15.17;;;12.97;;
60847;SDS011;46681;47.696;9.140;2023-03-01T06:38:15;14.77;;;13.10;;
60847;SDS011;46681;47.696;9.140;2023-03-01T06:40:43;13.70;;;12.30;;
60847;SDS011;46681;47.696;9.140;2023-03-01T06:43:11;14.70;;;12.90;;
60847;SDS011;46681;47.696;9.140;2023-03-01T06:45:37;17.20;;;13.27;;
60847;SDS011;46681;47.696;9.140;2023-03-01T06:48:03;15.87;;;13.63;;
60847;SDS011;46681;47.696;9.140;2023-03-01T06:50:35;14.83;;;13.03;;
60847;SDS011;46681;47.696;9.140;2023-03-01T06:53:05;14.53;;;13.03;;
60847;SDS011;46681;47.696;9.140;2023-03-01T06:55:31;14.00;;;12.57;;
60847;SDS011;46681;47.696;9.140;2023-03-01T06:58:10;14.73;;;13.17;;
60847;SDS011;46681;47.696;9.140;2023-03-01T07:00:36;14.53;;;13.03;;
60847;SDS011;46681;47.696;9.140;2023-03-01T07:03:24;16.60;;;13.20;;
60847;SDS011;46681;47.696;9.140;2023-03-01T07:05:56;16.53;;;12.83;;
60847;SDS011;46681;47.696;9.140;2023-03-01T07:08:46;14.77;;;13.17;;
60847;SDS011;46681;47.696;9.140;2023-03-01T07:11:14;14.10;;;12.67;;
60847;SDS011;46681;47.696;9.140;2023-03-01T07:13:41;16.10;;;13.33;;
60847;SDS011;46681;47.696;9.140;2023-03-01T07:16:09;14.63;;;12.73;;
60847;SDS011;46681;47.696;9.140;2023-03-01T07:18:44;14.77;;;13.23;;
60847;SDS011;46681;47.696;9.140;2023-03-01T07:21:17;13.23;;;11.30;;
60847;SDS011;46681;47.696;9.140;2023-03-01T07:23:46;16.77;;;13.07;;
60847;SDS011;46681;47.696;9.140;2023-03-01T07:26:14;15.23;;;13.50;;
60847;SDS011;46681;47.696;9.140;2023-03-01T07:28:42;16.67;;;12.70;;
60847;SDS011;46681;47.696;9.140;2023-03-01T07:31:08;16.00;;;13.43;;
60847;SDS011;46681;47.696;9.140;2023-03-01T07:33:33;16.03;;;13.33;;
60847;SDS011;46681;47.696;9.140;2023-03-01T07:36:05;13.63;;;12.13;;
60847;SDS011;46681;47.696;9.140;2023-03-01T07:38:37;18.43;;;13.33;;
60847;SDS011;46681;47.696;9.140;2023-03-01T07:41:07;15.43;;;13.83;;
60847;SDS011;46681;47.696;9.140;2023-03-01T07:43:35;13.57;;;12.17;;
60847;SDS011;46681;47.696;9.140;2023-03-01T07:46:01;14.67;;;13.13;;
60847;SDS011;46681;47.696;9.140;2023-03-01T07:48:28;15.27;;;13.10;;
60847;SDS011;46681;47.696;9.140;2023-03-01T07:51:04;16.00;;;12.40;;
60847;SDS011;46681;47.696;9.140;2023-03-01T07:53:31;14.70;;;13.00;;
60847;SDS011;46681;47.696;9.140;2023-03-01T07:56:10;13.83;;;12.37;;
60847;SDS011;46681;47.696;9.140;2023-03-01T07:58:39;14.97;;;13.37;;
60847;SDS011;46681;47.696;9.140;2023-03-01T08:01:09;14.43;;;12.73;;
60847;SDS011;46681;47.696;9.140;2023-03-01T08:03:41;14.37;;;12.87;;
60847;SDS011;46681;47.696;9.140;2023-03-01T08:06:16;14.93;;;12.90;;
60847;SDS011;46681;47.696;9.140;2023-03-01T08:08:46;14.20;;;12.53;;
60847;SDS011;46681;47.696;9.140;2023-03-01T08:11:12;15.17;;;13.03;;
60847;SDS011;46681;47.696;9.140;2023-03-01T08:13:46;14.50;;;13.00;;
60847;SDS011;46681;47.696;9.140;2023-03-01T08:16:14;13.90;;;12.50;;
60847;SDS011;46681;47.696;9.140;2023-03-01T08:18:43;13.33;;;12.03;;
60847;SDS011;46681;47.696;9.140;2023-03-01T08:21:10;14.57;;;12.90;;
60847;SDS011;46681;47.696;9.140;2023-03-01T08:23:42;14.47;;;12.97;;
60847;SDS011;46681;47.696;9.140;2023-03-01T08:26:12;15.53;;;13.00;;
60847;SDS011;46681;47.696;9.140;2023-03-01T08:28:52;15.23;;;13.03;;
60847;SDS011;46681;47.696;9.140;2023-03-01T08:31:21;14.73;;;13.10;;
60847;SDS011;46681;47.696;9.140;2023-03-01T08:33:52;14.27;;;12.43;;
60847;SDS011;46681;47.696;9.140;2023-03-01T08:36:23;16.33;;;13.40;;
60847;SDS011;46681;47.696;9.140;2023-03-01T08:39:14;15.40;;;12.60;;
60847;SDS011;46681;47.696;9.140;2023-03-01T08:41:42;13.93;;;12.53;;
60847;SDS011;46681;47.696;9.140;2023-03-01T08:44:19;16.50;;;12.63;;
60847;SDS011;46681;47.696;9.140;2023-03-01T08:46:47;13.80;;;11.53;;
60847;SDS011;46681;47.696;9.140;2023-03-01T08:49:20;14.03;;;12.47;;
60847;SDS011;46681;47.696;9.140;2023-03-01T08:51:48;14.90;;;13.07;;
60847;SDS011;46681;47.696;9.140;2023-03-01T08:54:25;15.13;;;13.10;;
60847;SDS011;46681;47.696;9.140;2023-03-01T08:56:53;13.77;;;12.20;;
60847;SDS011;46681;47.696;9.140;2023-03-01T08:59:20;16.27;;;12.97;;
60847;SDS011;46681;47.696;9.140;2023-03-01T09:01:48;13.47;;;12.07;;
60847;SDS011;46681;47.696;9.140;2023-03-01T09:04:16;13.63;;;12.20;;
60847;SDS011;46681;47.696;9.140;2023-03-01T09:06:52;15.13;;;13.33;;
60847;SDS011;46681;47.696;9.140;2023-03-01T09:09:58;16.10;;;12.77;;
60847;SDS011;46681;47.696;9.140;2023-03-01T09:12:30;13.80;;;12.30;;
60847;SDS011;46681;47.696;9.140;2023-03-01T09:15:08;15.73;;;12.60;;
60847;SDS011;46681;47.696;9.140;2023-03-01T09:17:34;14.77;;;12.83;;
60847;SDS011;46681;47.696;9.140;2023-03-01T09:20:03;13.73;;;12.17;;
60847;SDS011;46681;47.696;9.140;2023-03-01T09:22:39;15.13;;;13.53;;
60847;SDS011;46681;47.696;9.140;2023-03-01T09:25:08;14.87;;;13.23;;
60847;SDS011;46681;47.696;9.140;2023-03-01T09:27:34;16.20;;;12.73;;
60847;SDS011;46681;47.696;9.140;2023-03-01T09:30:06;15.50;;;12.53;;
60847;SDS011;46681;47.696;9.140;2023-03-01T09:32:35;15.00;;;13.40;;
60847;SDS011;46681;47.696;9.140;2023-03-01T09:35:03;14.97;;;12.40;;
60847;SDS011;46681;47.696;9.140;2023-03-01T09:37:29;15.00;;;12.73;;
60847;SDS011;46681;47.696;9.140;2023-03-01T09:40:06;14.90;;;12.27;;
60847;SDS011;46681;47.696;9.140;2023-03-01T09:42:44;14.13;;;12.60;;
60847;SDS011;46681;47.696;9.140;2023-03-01T09:45:33;13.37;;;11.97;;
60847;SDS011;46681;47.696;9.140;2023-03-01T09:48:09;13.73;;;12.27;;
60847;SDS011;46681;47.696;9.140;2023-03-01T09:50:54;14.73;;;12.80;;
60847;SDS011;46681;47.696;9.140;2023-03-01T09:53:32;14.80;;;13.07;;
60847;SDS011;46681;47.696;9.140;2023-03-01T09:56:13;14.47;;;12.93;;
60847;SDS011;46681;47.696;9.140;2023-03-01T10:04:51;16.90;;;13.03;;
60847;SDS011;46681;47.696;9.140;2023-03-01T10:10:26;15.43;;;13.60;;
60847;SDS011;46681;47.696;9.140;2023-03-01T10:13:29;15.13;;;13.37;;
60847;SDS011;46681;47.696;9.140;2023-03-01T10:16:17;13.67;;;12.23;;
60847;SDS011;46681;47.696;9.140;2023-03-01T10:18:59;14.50;;;12.73;;
60847;SDS011;46681;47.696;9.140;2023-03-01T10:21:31;13.87;;;12.40;;
60847;SDS011;46681;47.696;9.140;2023-03-01T10:24:12;14.63;;;12.90;;
60847;SDS011;46681;47.696;9.140;2023-03-01T10:26:47;16.13;;;13.63;;
60847;SDS011;46681;47.696;9.140;2023-03-01T10:29:19;14.00;;;12.63;;
60847;SDS011;46681;47.696;9.140;2023-03-01T10:32:05;14.60;;;12.53;;
60847;SDS011;46681;47.696;9.140;2023-03-01T10:34:51;15.40;;;12.97;;
60847;SDS011;46681;47.696;9.140;2023-03-01T10:37:19;16.23;;;12.70;;
60847;SDS011;46681;47.696;9.140;2023-03-01T10:42:30;15.97;;;12.97;;
60847;SDS011;46681;47.696;9.140;2023-03-01T10:45:44;15.83;;;13.43;;
60847;SDS011;46681;47.696;9.140;2023-03-01T10:53:48;14.03;;;12.60;;
60847;SDS011;46681;47.696;9.140;2023-03-01T10:56:24;14.60;;;12.90;;
60847;SDS011;46681;47.696;9.140;2023-03-01T10:59:09;16.43;;;14.53;;
60847;SDS011;46681;47.696;9.140;2023-03-01T11:05:02;17.97;;;14.03;;
60847;SDS011;46681;47.696;9.140;2023-03-01T11:10:30;15.47;;;13.90;;
60847;SDS011;46681;47.696;9.140;2023-03-01T11:13:08;14.87;;;13.27;;
60847;SDS011;46681;47.696;9.140;2023-03-01T11:15:40;14.57;;;13.03;;
60847;SDS011;46681;47.696;9.140;2023-03-01T11:18:25;14.47;;;12.83;;
60847;SDS011;46681;47.696;9.140;2023-03-01T11:21:01;16.97;;;13.40;;
60847;SDS011;46681;47.696;9.140;2023-03-01T11:23:41;15.37;;;13.77;;
60847;SDS011;46681;47.696;9.140;2023-03-01T11:26:34;14.13;;;12.70;;
60847;SDS011;46681;47.696;9.140;2023-03-01T11:29:11;14.73;;;12.70;;
60847;SDS011;46681;47.696;9.140;2023-03-01T11:32:02;14.50;;;13.00;;
60847;SDS011;46681;47.696;9.140;2023-03-01T11:34:59;12.07;;;10.77;;
60847;SDS011;46681;47.696;9.140;2023-03-01T11:37:44;11.07;;;9.47;;
60847;SDS011;46681;47.696;9.140;2023-03-01T11:40:37;13.37;;;11.97;;
60847;SDS011;46681;47.696;9.140;2023-03-01T11:56:50;14.03;;;11.80;;
60847;SDS011;46681;47.696;9.140;2023-03-01T11:59:51;13.87;;;12.53;;
60847;SDS011;46681;47.696;9.140;2023-03-01T12:26:18;14.67;;;12.27;;
60847;SDS011;46681;47.696;9.140;2023-03-01T12:33:17;14.60;;;12.37;;
60847;SDS011;46681;47.696;9.140;2023-03-01T12:35:36;14.53;;;12.33;;
60847;SDS011;46681;47.696;9.140;2023-03-01T12:49:41;14.43;;;12.07;;
60847;SDS011;46681;47.696;9.140;2023-03-01T12:52:56;14.00;;;12.47;;
60847;SDS011;46681;47.696;9.140;2023-03-01T12:55:42;14.47;;;12.80;;
60847;SDS011;46681;47.696;9.140;2023-03-01T13:01:48;13.17;;;11.77;;
60847;SDS011;46681;47.696;9.140;2023-03-01T13:13:12;14.17;;;12.17;;
60847;SDS011;46681;47.696;9.140;2023-03-01T13:16:19;13.23;;;11.83;;
60847;SDS011;46681;47.696;9.140;2023-03-01T13:22:00;14.07;;;12.57;;
60847;SDS011;46681;47.696;9.140;2023-03-01T13:31:11;13.63;;;12.30;;
60847;SDS011;46681;47.696;9.140;2023-03-01T13:33:58;12.43;;;11.13;;
60847;SDS011;46681;47.696;9.140;2023-03-01T13:42:02;14.53;;;12.40;;
60847;SDS011;46681;47.696;9.140;2023-03-01T13:45:04;14.43;;;12.17;;
60847;SDS011;46681;47.696;9.140;2023-03-01T13:47:50;14.03;;;11.93;;
60847;SDS011;46681;47.696;9.140;2023-03-01T13:50:37;13.17;;;11.80;;
60847;SDS011;46681;47.696;9.140;2023-03-01T13:53:14;13.40;;;11.87;;
60847;SDS011;46681;47.696;9.140;2023-03-01T13:55:56;13.47;;;12.07;;
60847;SDS011;46681;47.696;9.140;2023-03-01T13:58:48;14.23;;;12.60;;
60847;SDS011;46681;47.696;9.140;2023-03-01T14:01:31;12.93;;;11.40;;
60847;SDS011;46681;47.696;9.140;2023-03-01T14:07:24;14.70;;;11.73;;
60847;SDS011;46681;47.696;9.140;2023-03-01T14:09:52;14.47;;;12.27;;
60847;SDS011;46681;47.696;9.140;2023-03-01T14:15:48;12.77;;;11.20;;
60847;SDS011;46681;47.696;9.140;2023-03-01T14:18:33;14.20;;;12.27;;
60847;SDS011;46681;47.696;9.140;2023-03-01T14:21:12;13.20;;;11.80;;
60847;SDS011;46681;47.696;9.140;2023-03-01T14:23:44;13.23;;;11.73;;
60847;SDS011;46681;47.696;9.140;2023-03-01T14:26:20;13.23;;;11.63;;
60847;SDS011;46681;47.696;9.140;2023-03-01T14:28:52;15.20;;;10.60;;
60847;SDS011;46681;47.696;9.140;2023-03-01T14:31:39;15.37;;;12.13;;
60847;SDS011;46681;47.696;9.140;2023-03-01T14:34:16;15.13;;;12.13;;
60847;SDS011;46681;47.696;9.140;2023-03-01T14:36:49;13.10;;;11.57;;
60847;SDS011;46681;47.696;9.140;2023-03-01T14:39:18;15.57;;;12.37;;
60847;SDS011;46681;47.696;9.140;2023-03-01T14:41:49;13.73;;;12.40;;
60847;SDS011;46681;47.696;9.140;2023-03-01T14:44:25;13.80;;;12.40;;
60847;SDS011;46681;47.696;9.140;2023-03-01T14:46:53;14.30;;;12.73;;
60847;SDS011;46681;47.696;9.140;2023-03-01T14:49:25;15.43;;;13.27;;
60847;SDS011;46681;47.696;9.140;2023-03-01T14:52:03;14.60;;;12.93;;
60847;SDS011;46681;47.696;9.140;2023-03-01T14:57:23;16.60;;;12.87;;
60847;SDS011;46681;47.696;9.140;2023-03-01T14:59:55;15.40;;;12.73;;
60847;SDS011;46681;47.696;9.140;2023-03-01T15:02:26;14.67;;;12.90;;
60847;SDS011;46681;47.696;9.140;2023-03-01T15:04:59;14.83;;;13.23;;
60847;SDS011;46681;47.696;9.140;2023-03-01T15:07:41;14.37;;;12.80;;
60847;SDS011;46681;47.696;9.140;2023-03-01T15:10:22;14.87;;;13.10;;
60847;SDS011;46681;47.696;9.140;2023-03-01T15:13:20;14.37;;;12.87;;
60847;SDS011;46681;47.696;9.140;2023-03-01T15:16:02;16.10;;;13.83;;
60847;SDS011;46681;47.696;9.140;2023-03-01T15:18:50;13.07;;;11.87;;
60847;SDS011;46681;47.696;9.140;2023-03-01T15:21:38;15.50;;;13.07;;
60847;SDS011;46681;47.696;9.140;2023-03-01T15:24:25;15.23;;;13.50;;
60847;SDS011;46681;47.696;9.140;2023-03-01T15:27:01;15.30;;;13.10;;
60847;SDS011;46681;47.696;9.140;2023-03-01T15:29:34;15.10;;;13.47;;
60847;SDS011;46681;47.696;9.140;2023-03-01T15:32:28;15.87;;;12.97;;
60847;SDS011;46681;47.696;9.140;2023-03-01T15:35:32;14.67;;;13.07;;
60847;SDS011;46681;47.696;9.140;2023-03-01T15:41:24;16.20;;;13.93;;
60847;SDS011;46681;47.696;9.140;2023-03-01T15:47:07;15.00;;;12.97;;
60847;SDS011;46681;47.696;9.140;2023-03-01T15:49:56;16.47;;;12.60;;
60847;SDS011;46681;47.696;9.140;2023-03-01T15:52:35;14.60;;;12.97;;
60847;SDS011;46681;47.696;9.140;2023-03-01T15:55:20;15.93;;;13.70;;
60847;SDS011;46681;47.696;9.140;2023-03-01T15:57:57;13.83;;;11.60;;
60847;SDS011;46681;47.696;9.140;2023-03-01T16:00:33;14.70;;;12.97;;
60847;SDS011;46681;47.696;9.140;2023-03-01T16:03:09;13.43;;;12.10;;
60847;SDS011;46681;47.696;9.140;2023-03-01T16:05:49;14.87;;;13.10;;
60847;SDS011;46681;47.696;9.140;2023-03-01T16:08:23;14.13;;;12.47;;
60847;SDS011;46681;47.696;9.140;2023-03-01T16:10:53;14.60;;;13.10;;
60847;SDS011;46681;47.696;9.140;2023-03-01T16:13:23;14.83;;;12.70;;
60847;SDS011;46681;47.696;9.140;2023-03-01T16:15:48;13.77;;;12.37;;
60847;SDS011;46681;47.696;9.140;2023-03-01T16:18:18;15.03;;;13.43;;
60847;SDS011;46681;47.696;9.140;2023-03-01T16:20:49;13.07;;;11.67;;
60847;SDS011;46681;47.696;9.140;2023-03-01T16:23:17;14.97;;;13.43;;
60847;SDS011;46681;47.696;9.140;2023-03-01T16:25:43;14.57;;;13.03;;
60847;SDS011;46681;47.696;9.140;2023-03-01T16:28:11;16.57;;;13.37;;
60847;SDS011;46681;47.696;9.140;2023-03-01T16:30:38;16.77;;;13.27;;
60847;SDS011;46681;47.696;9.140;2023-03-01T16:33:11;15.07;;;13.57;;
60847;SDS011;46681;47.696;9.140;2023-03-01T16:35:46;14.17;;;12.73;;
60847;SDS011;46681;47.696;9.140;2023-03-01T16:38:18;15.07;;;13.13;;
60847;SDS011;46681;47.696;9.140;2023-03-01T16:40:49;15.57;;;13.37;;
60847;SDS011;46681;47.696;9.140;2023-03-01T16:43:21;14.97;;;13.47;;
60847;SDS011;46681;47.696;9.140;2023-03-01T16:45:49;15.90;;;14.27;;
60847;SDS011;46681;47.696;9.140;2023-03-01T16:48:15;15.10;;;13.50;;
60847;SDS011;46681;47.696;9.140;2023-03-01T16:50:43;16.10;;;13.93;;
60847;SDS011;46681;47.696;9.140;2023-03-01T16:53:22;15.20;;;13.60;;
60847;SDS011;46681;47.696;9.140;2023-03-01T16:56:05;14.93;;;13.33;;
60847;SDS011;46681;47.696;9.140;2023-03-01T16:58:48;14.33;;;12.83;;
60847;SDS011;46681;47.696;9.140;2023-03-01T17:01:18;15.13;;;13.50;;
60847;SDS011;46681;47.696;9.140;2023-03-01T17:03:45;16.83;;;13.97;;
60847;SDS011;46681;47.696;9.140;2023-03-01T17:06:26;16.83;;;14.80;;
60847;SDS011;46681;47.696;9.140;2023-03-01T17:08:54;16.37;;;14.53;;
60847;SDS011;46681;47.696;9.140;2023-03-01T17:11:39;17.17;;;13.77;;
60847;SDS011;46681;47.696;9.140;2023-03-01T17:14:14;16.00;;;12.87;;
60847;SDS011;46681;47.696;9.140;2023-03-01T17:16:43;18.10;;;14.13;;